Time;durP1;ratioP1;P1;durP2;ratioP2;P2;SDS_P1;SDS_P2;PMS_P1;PMS_P2;Temp;Humidity;BMP_temperature;BMP_pressure;BME280_temperature;BME280_humidity;BME280_pressure;Samples;Min_cycle;Max_cycle;Signal;HPM_P1;HPM_P2
2023/06/26 00:00:19;;;;;;;38.65;22.13;;;24.60;94.40;;;;;;4878458;29;20041;-71
2023/06/26 00:02:45;;;;;;;46.35;23.38;;;25.20;94.80;;;;;;4878482;29;20048;-71
2023/06/26 00:05:12;;;;;;;41.95;23.33;;;25.50;94.80;;;;;;4880480;29;20092;-71
2023/06/26 00:07:37;;;;;;;37.30;22.55;;;25.10;95.00;;;;;;4866843;29;20127;-71
2023/06/26 00:10:04;;;;;;;41.03;23.02;;;24.40;95.50;;;;;;4857957;29;20128;-71
2023/06/26 00:12:31;;;;;;;47.60;25.95;;;25.30;95.10;;;;;;4900427;29;20083;-71
2023/06/26 00:14:57;;;;;;;39.83;22.23;;;25.20;95.30;;;;;;4885103;29;20076;-71
2023/06/26 00:17:23;;;;;;;46.20;24.70;;;25.00;95.20;;;;;;4898957;29;20076;-71
2023/06/26 00:19:49;;;;;;;47.42;26.08;;;25.30;95.40;;;;;;4900626;29;20066;-71
2023/06/26 00:22:15;;;;;;;40.85;24.55;;;25.20;95.50;;;;;;4900597;29;20055;-71
2023/06/26 00:24:40;;;;;;;41.92;24.30;;;25.00;95.50;;;;;;4885232;29;20056;-71
2023/06/26 00:27:06;;;;;;;42.83;24.80;;;23.70;95.30;;;;;;4900684;29;20118;-71
2023/06/26 00:29:32;;;;;;;46.58;24.55;;;24.50;91.00;;;;;;4900989;29;20059;-71
2023/06/26 00:31:58;;;;;;;46.22;26.90;;;25.20;95.80;;;;;;4874786;29;20475;-71
2023/06/26 00:34:24;;;;;;;45.75;25.38;;;23.70;95.50;;;;;;4882045;29;20055;-71
2023/06/26 00:36:50;;;;;;;47.95;25.85;;;;;;;;;;4881952;29;20044;-71
2023/06/26 00:39:16;;;;;;;48.33;26.67;;;25.10;95.90;;;;;;4881718;29;20533;-71
2023/06/26 00:41:42;;;;;;;44.72;25.15;;;;;;;;;;4866154;29;20141;-71
2023/06/26 00:44:07;;;;;;;42.17;25.67;;;24.30;90.80;;;;;;4866362;29;20442;-71
2023/06/26 00:46:34;;;;;;;45.00;24.83;;;24.30;91.40;;;;;;4876323;29;20052;-71
2023/06/26 00:49:03;;;;;;;46.58;26.88;;;24.20;91.50;;;;;;4902929;29;20040;-71
2023/06/26 00:51:30;;;;;;;45.42;26.25;;;23.40;96.00;;;;;;4903025;29;20465;-71
2023/06/26 00:53:57;;;;;;;44.95;26.15;;;23.70;96.20;;;;;;4903499;29;20043;-71
2023/06/26 00:56:23;;;;;;;44.75;25.98;;;24.00;91.10;;;;;;4919849;29;20099;-71
2023/06/26 00:58:49;;;;;;;46.47;26.17;;;24.30;96.50;;;;;;4903481;29;20036;-71
2023/06/26 01:01:17;;;;;;;44.75;25.77;;;24.20;96.50;;;;;;4894124;29;20517;-71
2023/06/26 01:03:51;;;;;;;45.25;25.77;;;24.60;93.90;;;;;;4884751;29;20490;-71
2023/06/26 01:06:17;;;;;;;43.47;26.42;;;23.90;91.50;;;;;;4884395;29;20048;-71
2023/06/26 01:08:44;;;;;;;43.30;25.35;;;23.70;91.90;;;;;;4884515;29;20430;-71
2023/06/26 01:11:11;;;;;;;44.63;24.75;;;23.40;96.70;;;;;;4883906;29;20044;-71
2023/06/26 01:13:38;;;;;;;50.13;27.75;;;24.50;97.00;;;;;;4884098;29;20052;-70
2023/06/26 01:16:05;;;;;;;47.28;26.50;;;24.50;97.00;;;;;;4883276;29;20101;-70
2023/06/26 01:18:32;;;;;;;49.15;25.90;;;24.50;93.70;;;;;;4893514;29;20164;-70
2023/06/26 01:21:01;;;;;;;43.22;25.73;;;24.00;97.00;;;;;;4902686;29;20035;-70
2023/06/26 01:23:57;;;;;;;46.95;26.88;;;24.50;96.70;;;;;;4902684;29;20051;-71
2023/06/26 01:26:25;;;;;;;55.80;27.83;;;24.30;97.20;;;;;;4886920;29;20126;-70
2023/06/26 01:28:53;;;;;;;47.25;27.73;;;23.20;97.00;;;;;;4891728;29;20051;-71
2023/06/26 01:31:19;;;;;;;51.05;27.25;;;24.40;97.30;;;;;;4883792;29;20053;-71
2023/06/26 01:33:46;;;;;;;44.50;25.92;;;24.40;97.40;;;;;;4868262;29;20084;-71
2023/06/26 01:36:12;;;;;;;47.88;27.85;;;23.60;91.90;;;;;;4883794;29;20036;-71
2023/06/26 01:38:38;;;;;;;50.15;29.48;;;24.10;97.40;;;;;;4884622;29;20076;-71
2023/06/26 01:41:05;;;;;;;53.75;27.48;;;23.50;92.60;;;;;;4887960;29;20079;-71
2023/06/26 01:43:52;;;;;;;51.47;29.35;;;24.00;97.70;;;;;;4895490;29;20044;-71
2023/06/26 01:46:21;;;;;;;51.25;28.95;;;24.20;97.80;;;;;;4868308;29;20055;-71
2023/06/26 01:48:57;;;;;;;51.13;28.77;;;22.90;97.60;;;;;;4883230;29;20044;-71
2023/06/26 01:51:30;;;;;;;49.70;28.35;;;22.40;97.50;;;;;;4887475;29;20131;-70
2023/06/26 01:53:58;;;;;;;61.05;29.10;;;24.10;98.00;;;;;;4899007;29;20036;-71
2023/06/26 01:56:25;;;;;;;50.53;29.17;;;22.40;97.70;;;;;;4868033;29;20048;-71
2023/06/26 01:58:54;;;;;;;52.00;30.38;;;22.70;93.00;;;;;;4880960;29;20041;-71
2023/06/26 02:01:21;;;;;;;56.95;30.67;;;24.00;98.30;;;;;;4898765;29;20485;-71
2023/06/26 02:03:48;;;;;;;57.08;28.95;;;24.20;93.60;;;;;;4899713;29;20048;-71
2023/06/26 02:06:13;;;;;;;50.35;29.33;;;22.90;98.20;;;;;;4886260;29;20070;-71
2023/06/26 02:08:40;;;;;;;59.03;32.72;;;23.40;93.50;;;;;;4870157;29;20474;-71
2023/06/26 02:11:06;;;;;;;58.90;31.27;;;23.30;98.60;;;;;;4882925;29;20503;-71
2023/06/26 02:13:32;;;;;;;58.30;31.67;;;;;;;;;;4868439;29;20079;-71
2023/06/26 02:15:58;;;;;;;61.75;32.90;;;23.50;98.90;;;;;;4867895;29;20076;-70
2023/06/26 02:18:24;;;;;;;60.67;30.38;;;22.10;95.20;;;;;;4882946;29;20086;-71
2023/06/26 02:20:50;;;;;;;57.17;30.58;;;22.80;98.90;;;;;;4867392;29;20040;-71
2023/06/26 02:23:16;;;;;;;54.00;29.75;;;23.30;99.00;;;;;;4888705;29;20072;-71
2023/06/26 02:25:41;;;;;;;55.63;30.52;;;22.20;98.80;;;;;;4895830;29;20121;-71
2023/06/26 02:28:07;;;;;;;55.00;30.55;;;;;;;;;;4867353;29;20072;-71
2023/06/26 02:30:34;;;;;;;55.70;31.48;;;;;;;;;;4867407;29;20136;-71
2023/06/26 02:32:59;;;;;;;62.80;30.15;;;23.30;99.30;;;;;;4884894;29;20045;-71
2023/06/26 02:35:25;;;;;;;59.80;31.80;;;;;;;;;;4882601;29;20075;-70
2023/06/26 02:37:51;;;;;;;60.45;31.80;;;23.40;99.70;;;;;;4884786;29;20477;-71
2023/06/26 02:40:17;;;;;;;59.03;31.27;;;23.20;95.80;;;;;;4884668;29;20048;-71
2023/06/26 02:42:43;;;;;;;65.15;34.00;;;;;;;;;;4882579;29;20060;-71
2023/06/26 02:45:09;;;;;;;66.97;31.67;;;23.60;99.90;;;;;;4881242;29;20040;-70
2023/06/26 02:47:36;;;;;;;57.50;28.33;;;21.80;99.70;;;;;;4885057;29;20131;-71
2023/06/26 02:50:02;;;;;;;55.78;26.60;;;23.60;99.90;;;;;;4898856;29;20056;-70
2023/06/26 02:52:29;;;;;;;51.00;24.58;;;;;;;;;;4891323;29;20055;-70
2023/06/26 02:54:54;;;;;;;55.10;24.75;;;21.60;99.90;;;;;;4882463;29;20052;-70
2023/06/26 02:57:21;;;;;;;58.60;24.30;;;;;;;;;;4887094;29;20036;-71
2023/06/26 02:59:46;;;;;;;48.70;24.17;;;22.80;99.90;;;;;;4851488;29;20105;-71
2023/06/26 03:02:12;;;;;;;49.78;22.30;;;22.80;99.90;;;;;;4866825;29;20115;-71
2023/06/26 03:04:38;;;;;;;50.33;21.17;;;23.20;99.90;;;;;;4851204;29;20399;-70
2023/06/26 03:07:04;;;;;;;50.13;21.23;;;22.70;99.90;;;;;;4881313;29;20078;-71
2023/06/26 03:09:30;;;;;;;40.70;21.05;;;;;;;;;;4884718;29;20040;-71
2023/06/26 03:11:56;;;;;;;48.08;20.50;;;22.10;99.90;;;;;;4866558;29;20404;-71
2023/06/26 03:14:22;;;;;;;52.85;21.02;;;;;;;;;;4882162;29;20048;-71
2023/06/26 03:16:51;;;;;;;54.97;21.63;;;;;;;;;;4866773;29;20426;-71
2023/06/26 03:19:16;;;;;;;52.15;23.48;;;22.70;99.90;;;;;;4868389;29;20052;-71
2023/06/26 03:21:42;;;;;;;51.13;21.52;;;22.80;99.90;;;;;;4866839;29;20041;-71
2023/06/26 03:24:08;;;;;;;50.42;20.05;;;;;;;;;;4892766;29;20481;-71
2023/06/26 03:26:34;;;;;;;49.65;21.23;;;21.60;99.90;;;;;;4869811;29;20176;-71
2023/06/26 03:28:59;;;;;;;45.45;21.13;;;22.00;99.90;;;;;;4850968;29;20143;-71
2023/06/26 03:31:25;;;;;;;48.88;21.55;;;23.00;99.90;;;;;;4880264;29;20436;-71
2023/06/26 03:33:51;;;;;;;48.53;21.35;;;22.30;99.90;;;;;;4882044;29;20080;-71
2023/06/26 03:36:16;;;;;;;50.17;21.30;;;21.20;99.90;;;;;;4866196;29;20445;-71
2023/06/26 03:38:42;;;;;;;54.58;23.50;;;21.40;99.90;;;;;;4895852;29;20040;-71
2023/06/26 03:41:08;;;;;;;46.95;21.10;;;;;;;;;;4878956;29;20131;-71
2023/06/26 03:43:34;;;;;;;47.67;20.52;;;21.50;99.90;;;;;;4866011;29;20356;-71
2023/06/26 03:46:00;;;;;;;83.75;24.23;;;22.80;99.90;;;;;;4892984;29;20180;-71
2023/06/26 03:48:25;;;;;;;65.93;23.75;;;22.00;99.90;;;;;;4879520;29;20100;-73
2023/06/26 03:50:51;;;;;;;61.13;21.98;;;;;;;;;;4889386;29;20068;-73
2023/06/26 03:53:17;;;;;;;55.42;22.38;;;20.80;99.90;;;;;;4881463;29;20047;-73
2023/06/26 03:55:43;;;;;;;60.47;23.65;;;22.10;99.90;;;;;;4886377;29;20040;-73
2023/06/26 03:58:09;;;;;;;57.45;24.17;;;22.20;99.90;;;;;;4888409;29;20048;-74
2023/06/26 04:00:35;;;;;;;47.80;21.77;;;;;;;;;;4889909;29;20052;-72
2023/06/26 04:03:02;;;;;;;58.10;22.05;;;20.20;99.90;;;;;;4898335;29;20051;-72
2023/06/26 04:05:28;;;;;;;51.20;22.50;;;20.60;99.90;;;;;;4886820;29;20424;-73
2023/06/26 04:07:54;;;;;;;56.03;22.17;;;;;;;;;;4878972;29;20041;-73
2023/06/26 04:10:21;;;;;;;47.92;21.55;;;;;;;;;;4890548;29;20139;-73
2023/06/26 04:12:47;;;;;;;41.58;20.20;;;20.80;99.90;;;;;;4882881;29;20051;-73
2023/06/26 04:15:14;;;;;;;44.58;18.67;;;21.60;99.90;;;;;;4874739;29;20044;-73
2023/06/26 04:17:40;;;;;;;35.90;17.75;;;;;;;;;;4895261;29;20043;-73
2023/06/26 04:20:06;;;;;;;43.20;17.42;;;21.70;99.90;;;;;;4890147;29;20473;-73
2023/06/26 04:22:33;;;;;;;33.58;15.18;;;21.40;99.90;;;;;;4882991;29;20086;-73
2023/06/26 04:25:02;;;;;;;34.33;15.25;;;20.00;99.90;;;;;;4881003;29;20045;-73
2023/06/26 04:27:28;;;;;;;31.48;14.55;;;21.60;99.90;;;;;;4887747;29;20413;-73
2023/06/26 04:29:54;;;;;;;39.45;13.90;;;21.60;99.90;;;;;;4887125;29;20044;-73
2023/06/26 04:32:19;;;;;;;35.33;12.95;;;20.90;99.90;;;;;;4880974;29;20032;-73
2023/06/26 04:34:45;;;;;;;31.58;11.70;;;19.70;99.90;;;;;;4873474;29;20060;-73
2023/06/26 04:37:16;;;;;;;34.03;11.00;;;;;;;;;;4881669;29;20040;-73
2023/06/26 04:39:41;;;;;;;29.70;9.52;;;20.90;99.90;;;;;;4893692;29;20492;-73
2023/06/26 04:42:07;;;;;;;25.83;8.90;;;20.70;99.90;;;;;;4884226;29;20040;-73
2023/06/26 04:44:33;;;;;;;20.23;7.63;;;21.10;99.90;;;;;;4886082;29;20161;-73
2023/06/26 04:46:59;;;;;;;18.73;7.55;;;;;;;;;;4882848;29;20076;-73
2023/06/26 04:49:27;;;;;;;29.52;8.95;;;20.50;99.90;;;;;;4882752;29;20143;-73
2023/06/26 04:51:54;;;;;;;27.75;7.90;;;20.90;99.90;;;;;;4872439;29;20052;-73
2023/06/26 04:54:20;;;;;;;24.60;7.55;;;21.20;99.90;;;;;;4876186;29;20032;-72
2023/06/26 04:56:47;;;;;;;25.48;7.25;;;19.00;99.90;;;;;;4886391;29;20044;-72
2023/06/26 04:59:14;;;;;;;27.52;7.15;;;19.20;99.90;;;;;;4884729;29;20450;-72
2023/06/26 05:01:40;;;;;;;26.88;6.47;;;18.90;99.90;;;;;;4881984;29;20043;-72
2023/06/26 05:04:07;;;;;;;25.08;6.57;;;19.40;99.90;;;;;;4894679;29;20127;-72
2023/06/26 05:06:32;;;;;;;32.00;7.30;;;19.60;99.90;;;;;;4890741;29;20044;-72
2023/06/26 05:08:58;;;;;;;31.10;6.82;;;20.20;99.90;;;;;;4901258;29;20400;-72
2023/06/26 05:11:25;;;;;;;26.23;5.78;;;19.90;99.90;;;;;;4899605;29;20824;-72
2023/06/26 05:13:51;;;;;;;38.55;6.82;;;19.40;99.90;;;;;;4884456;29;20441;-73
2023/06/26 05:16:17;;;;;;;29.38;6.80;;;18.80;99.90;;;;;;4892495;29;20036;-72
2023/06/26 05:18:43;;;;;;;25.63;5.50;;;;;;;;;;4901098;29;20040;-70
2023/06/26 05:21:09;;;;;;;23.48;5.57;;;19.70;99.90;;;;;;4896745;29;20076;-70
2023/06/26 05:23:35;;;;;;;27.25;5.90;;;19.60;99.90;;;;;;4895992;29;20044;-70
2023/06/26 05:26:02;;;;;;;22.50;4.72;;;19.60;99.90;;;;;;4891340;29;20044;-70
2023/06/26 05:28:31;;;;;;;22.33;5.40;;;18.90;99.90;;;;;;4891958;29;20048;-70
2023/06/26 05:30:57;;;;;;;18.38;4.93;;;;;;;;;;4892970;29;20052;-70
2023/06/26 05:33:24;;;;;;;19.02;5.72;;;21.00;99.90;;;;;;4883735;29;20120;-70
2023/06/26 05:35:54;;;;;;;23.33;5.40;;;19.80;99.90;;;;;;4888935;29;20040;-69
2023/06/26 05:38:20;;;;;;;25.77;5.97;;;20.60;99.90;;;;;;4884733;29;20544;-69
2023/06/26 05:40:46;;;;;;;17.95;4.88;;;20.50;99.90;;;;;;4886999;29;20052;-69
2023/06/26 05:43:12;;;;;;;21.88;4.63;;;20.10;99.90;;;;;;4885149;29;20606;-73
2023/06/26 05:45:38;;;;;;;17.30;4.55;;;20.30;99.90;;;;;;4891247;29;20052;-73
2023/06/26 05:48:04;;;;;;;13.23;4.60;;;20.30;99.90;;;;;;4871467;29;20370;-69
2023/06/26 05:50:30;;;;;;;20.33;3.92;;;20.60;99.90;;;;;;4898719;29;20056;-69
2023/06/26 05:52:57;;;;;;;16.13;5.22;;;;;;;;;;4869070;29;20109;-69
2023/06/26 05:55:23;;;;;;;15.85;4.10;;;20.20;99.90;;;;;;4900223;29;20115;-69
2023/06/26 05:57:50;;;;;;;13.48;4.25;;;20.70;99.90;;;;;;4886783;29;20083;-70
2023/06/26 06:00:17;;;;;;;16.52;3.75;;;19.80;99.90;;;;;;4883591;29;20100;-70
2023/06/26 06:02:43;;;;;;;19.00;4.30;;;19.00;99.90;;;;;;4878859;29;20071;-71
2023/06/26 06:05:09;;;;;;;20.75;4.50;;;20.70;99.90;;;;;;4887741;29;20503;-69
2023/06/26 06:07:35;;;;;;;12.07;4.13;;;19.00;99.90;;;;;;4887328;29;20044;-69
2023/06/26 06:10:02;;;;;;;17.92;3.83;;;18.70;99.90;;;;;;4882877;29;20094;-71
2023/06/26 06:12:28;;;;;;;22.48;4.30;;;;;;;;;;4893216;29;20156;-70
2023/06/26 06:14:55;;;;;;;18.20;3.97;;;19.40;99.90;;;;;;4893841;29;20044;-70
2023/06/26 06:17:21;;;;;;;25.25;4.20;;;;;;;;;;4892281;29;20138;-71
2023/06/26 06:19:47;;;;;;;26.15;4.57;;;19.90;99.90;;;;;;4889894;29;20033;-70
2023/06/26 06:22:13;;;;;;;17.55;4.13;;;18.90;99.90;;;;;;4890882;29;20037;-69
2023/06/26 06:24:39;;;;;;;24.17;4.32;;;19.70;99.90;;;;;;4898929;29;20049;-70
2023/06/26 06:27:05;;;;;;;21.35;4.68;;;;;;;;;;4894238;29;20115;-69
2023/06/26 06:29:31;;;;;;;13.60;3.30;;;20.60;99.90;;;;;;4896715;29;20044;-69
2023/06/26 06:31:57;;;;;;;15.38;4.22;;;20.20;99.90;;;;;;4893561;29;20040;-69
2023/06/26 06:34:23;;;;;;;17.10;3.97;;;20.40;99.90;;;;;;4867422;29;20071;-69
2023/06/26 06:36:49;;;;;;;16.35;3.33;;;;;;;;;;4890669;29;20043;-68
2023/06/26 06:39:15;;;;;;;21.65;3.97;;;20.60;99.90;;;;;;4882606;29;20041;-69
2023/06/26 06:41:41;;;;;;;20.42;3.50;;;;;;;;;;4882963;29;20047;-68
2023/06/26 06:44:07;;;;;;;14.95;3.38;;;19.80;99.90;;;;;;4883630;29;20048;-69
2023/06/26 06:46:33;;;;;;;11.55;2.70;;;19.10;99.90;;;;;;4883562;29;20147;-69
2023/06/26 06:49:00;;;;;;;11.52;2.90;;;20.30;99.90;;;;;;4885416;29;20036;-69
2023/06/26 06:51:25;;;;;;;11.95;3.05;;;18.90;99.90;;;;;;4874848;29;20057;-68
2023/06/26 06:53:51;;;;;;;9.07;3.13;;;19.00;99.90;;;;;;4892340;29;20119;-69
2023/06/26 06:56:17;;;;;;;8.07;3.10;;;20.30;99.90;;;;;;4884704;29;20115;-69
2023/06/26 06:58:43;;;;;;;11.13;2.90;;;20.50;99.90;;;;;;4892298;29;20042;-69
2023/06/26 07:01:12;;;;;;;11.57;3.33;;;20.60;99.90;;;;;;4873260;29;20045;-69
2023/06/26 07:03:38;;;;;;;9.88;3.25;;;20.70;99.90;;;;;;4887192;29;20051;-68
2023/06/26 07:06:03;;;;;;;8.45;2.65;;;19.10;99.90;;;;;;4869913;29;20052;-69
2023/06/26 07:08:30;;;;;;;13.88;3.20;;;19.00;99.90;;;;;;4888831;29;20458;-68
2023/06/26 07:10:59;;;;;;;12.02;3.05;;;20.80;99.90;;;;;;4881938;29;20055;-69
2023/06/26 07:13:25;;;;;;;10.00;2.88;;;;;;;;;;4887934;29;20151;-72
2023/06/26 07:15:51;;;;;;;11.15;3.20;;;20.90;99.90;;;;;;4867438;29;20052;-69
2023/06/26 07:18:16;;;;;;;10.77;3.00;;;19.80;99.90;;;;;;4885993;29;20486;-69
2023/06/26 07:20:43;;;;;;;9.52;2.95;;;;;;;;;;4876272;29;20121;-70
2023/06/26 07:23:08;;;;;;;9.85;3.08;;;20.80;99.90;;;;;;4885942;29;20052;-69
2023/06/26 07:25:35;;;;;;;10.80;3.13;;;;;;;;;;4886871;29;20049;-69
2023/06/26 07:28:01;;;;;;;8.43;2.80;;;20.70;99.90;;;;;;4875505;29;20404;-69
2023/06/26 07:30:26;;;;;;;11.35;3.03;;;20.70;99.90;;;;;;4889671;29;20059;-69
2023/06/26 07:32:53;;;;;;;9.77;2.63;;;;;;;;;;4893675;29;20036;-69
2023/06/26 07:35:19;;;;;;;12.80;4.10;;;21.20;99.90;;;;;;4891746;29;20040;-70
2023/06/26 07:37:45;;;;;;;9.60;4.30;;;;;;;;;;4866166;29;20160;-70
2023/06/26 07:40:11;;;;;;;11.25;3.47;;;20.90;99.90;;;;;;4888972;29;20071;-70
2023/06/26 07:42:37;;;;;;;13.02;3.55;;;;;;;;;;4881960;29;20055;-70
2023/06/26 07:45:10;;;;;;;11.02;3.63;;;19.00;98.90;;;;;;4897544;29;20040;-70
2023/06/26 07:47:39;;;;;;;6.93;3.40;;;20.80;99.90;;;;;;4878821;29;20079;-69
2023/06/26 07:50:05;;;;;;;9.93;3.28;;;20.00;99.90;;;;;;4875184;29;20055;-69
2023/06/26 07:52:31;;;;;;;8.70;3.10;;;21.00;99.90;;;;;;4882405;29;20393;-69
2023/06/26 07:54:57;;;;;;;8.63;3.45;;;;;;;;;;4890795;29;20040;-70
2023/06/26 07:57:23;;;;;;;11.13;3.70;;;19.70;99.90;;;;;;4896870;29;20068;-70
2023/06/26 07:59:50;;;;;;;10.80;3.40;;;18.50;98.90;;;;;;4878418;29;20045;-69
2023/06/26 08:02:16;;;;;;;12.25;3.40;;;20.60;99.90;;;;;;4881498;29;20127;-70
2023/06/26 08:04:42;;;;;;;11.32;3.60;;;;;;;;;;4887816;29;20115;-70
2023/06/26 08:07:08;;;;;;;11.98;3.40;;;19.80;99.90;;;;;;4882961;29;20037;-69
2023/06/26 08:09:34;;;;;;;9.35;3.30;;;19.80;99.90;;;;;;4866830;29;20056;-70
2023/06/26 08:11:59;;;;;;;8.50;3.30;;;19.40;99.90;;;;;;4889725;29;20048;-70
2023/06/26 08:14:25;;;;;;;9.38;3.10;;;19.50;99.90;;;;;;4889848;29;20048;-70
2023/06/26 08:16:51;;;;;;;10.95;2.97;;;20.70;99.90;;;;;;4881283;29;20485;-72
2023/06/26 08:19:18;;;;;;;8.45;3.05;;;19.80;99.90;;;;;;4886248;29;20119;-72
2023/06/26 08:21:45;;;;;;;10.98;3.20;;;19.60;99.90;;;;;;4896750;29;20078;-72
2023/06/26 08:24:12;;;;;;;13.45;3.65;;;20.50;99.90;;;;;;4882379;29;20090;-78
2023/06/26 08:26:39;;;;;;;8.50;3.25;;;21.30;99.90;;;;;;4898638;29;20055;-69
2023/06/26 08:29:07;;;;;;;11.50;3.70;;;19.80;99.90;;;;;;4881256;29;20047;-69
2023/06/26 08:31:37;;;;;;;14.57;4.07;;;20.80;97.00;;;;;;4889050;29;20136;-69
2023/06/26 08:34:04;;;;;;;17.75;4.47;;;20.70;97.90;;;;;;4893478;29;20047;-69
2023/06/26 08:36:31;;;;;;;13.88;3.88;;;21.40;99.90;;;;;;4873433;29;20485;-68
2023/06/26 08:38:57;;;;;;;13.45;4.25;;;;;;;;;;4893290;29;20112;-69
2023/06/26 08:41:23;;;;;;;17.75;4.70;;;;;;;;;;4900527;29;20039;-69
2023/06/26 08:43:51;;;;;;;17.33;4.80;;;21.20;99.90;;;;;;4883667;29;20512;-68
2023/06/26 08:46:17;;;;;;;15.15;4.75;;;20.80;99.20;;;;;;4887394;29;20052;-69
2023/06/26 08:48:48;;;;;;;9.57;4.00;;;21.60;98.30;;;;;;4899312;29;20047;-69
2023/06/26 08:51:17;;;;;;;11.80;4.55;;;20.90;97.70;;;;;;4873961;29;20088;-69
2023/06/26 08:54:02;;;;;;;17.38;5.68;;;20.60;98.00;;;;;;4885525;29;20040;-68
2023/06/26 08:56:49;;;;;;;15.02;4.40;;;21.50;99.90;;;;;;4893336;29;20071;-69
2023/06/26 08:59:15;;;;;;;11.90;3.67;;;20.90;99.90;;;;;;4890902;29;20088;-68
2023/06/26 09:01:41;;;;;;;9.98;4.50;;;21.70;99.90;;;;;;4886707;29;20112;-70
2023/06/26 09:04:07;;;;;;;12.63;4.15;;;;;;;;;;4882949;29;20040;-70
2023/06/26 09:06:33;;;;;;;16.95;5.38;;;21.80;99.90;;;;;;4896337;29;20409;-69
2023/06/26 09:08:59;;;;;;;11.15;4.78;;;21.20;99.90;;;;;;4883822;29;20044;-69
2023/06/26 09:11:25;;;;;;;14.70;6.20;;;21.80;99.90;;;;;;4891716;29;20517;-69
2023/06/26 09:13:51;;;;;;;11.25;4.65;;;21.50;96.00;;;;;;4900286;29;20039;-69
2023/06/26 09:16:17;;;;;;;12.80;4.80;;;20.40;99.70;;;;;;4886205;29;20050;-69
2023/06/26 09:18:46;;;;;;;12.35;4.75;;;20.50;99.90;;;;;;4880502;29;20040;-69
2023/06/26 09:21:12;;;;;;;15.52;5.40;;;20.30;99.90;;;;;;4879421;29;20041;-69
2023/06/26 09:23:41;;;;;;;10.27;4.82;;;21.10;99.90;;;;;;4892854;29;20083;-70
2023/06/26 09:26:07;;;;;;;12.02;5.68;;;;;;;;;;4880890;29;20386;-69
2023/06/26 09:28:34;;;;;;;16.75;6.10;;;21.70;97.30;;;;;;4868484;29;20067;-69
2023/06/26 09:31:05;;;;;;;16.85;6.40;;;21.10;96.30;;;;;;4896200;29;20072;-69
2023/06/26 09:33:38;;;;;;;19.10;6.10;;;20.90;99.90;;;;;;4885169;29;20108;-74
2023/06/26 09:36:21;;;;;;;12.75;6.13;;;21.90;99.90;;;;;;4884938;29;20374;-70
2023/06/26 09:38:47;;;;;;;17.77;6.80;;;21.60;99.90;;;;;;4886728;29;20136;-71
2023/06/26 09:41:17;;;;;;;13.70;5.55;;;21.60;96.00;;;;;;4887491;29;20044;-70
2023/06/26 09:43:47;;;;;;;18.77;5.72;;;22.30;99.90;;;;;;4890181;29;20112;-71
2023/06/26 09:46:31;;;;;;;17.00;5.25;;;21.00;99.40;;;;;;4888629;29;20040;-70
2023/06/26 09:49:07;;;;;;;13.57;4.38;;;21.70;93.90;;;;;;4885513;29;20042;-72
2023/06/26 09:51:35;;;;;;;14.07;4.45;;;21.70;94.70;;;;;;4886912;29;20063;-71
2023/06/26 09:54:01;;;;;;;13.65;4.20;;;21.50;98.60;;;;;;4883537;29;20067;-71
2023/06/26 09:56:28;;;;;;;10.93;3.92;;;21.40;98.80;;;;;;4873122;29;20056;-71
2023/06/26 09:59:00;;;;;;;14.95;3.65;;;22.10;98.90;;;;;;4898639;29;20040;-71
2023/06/26 10:01:27;;;;;;;13.07;4.55;;;22.60;98.80;;;;;;4892031;29;20079;-77
2023/06/26 10:03:56;;;;;;;12.30;3.58;;;21.80;94.20;;;;;;4898623;29;20481;-70
2023/06/26 10:06:45;;;;;;;14.43;3.70;;;22.00;98.20;;;;;;4888752;29;20086;-71
2023/06/26 10:09:13;;;;;;;16.13;3.47;;;21.00;97.90;;;;;;4898850;29;20040;-70
2023/06/26 10:11:39;;;;;;;13.55;3.10;;;;;;;;;;4879723;29;20131;-71
2023/06/26 10:14:07;;;;;;;13.88;3.60;;;21.80;93.70;;;;;;4869131;29;20079;-71
2023/06/26 10:16:36;;;;;;;14.32;3.20;;;22.00;94.60;;;;;;4876558;29;20055;-71
2023/06/26 10:19:06;;;;;;;10.38;2.95;;;22.00;93.40;;;;;;4874552;29;20076;-70
2023/06/26 10:21:34;;;;;;;11.07;2.55;;;21.90;97.10;;;;;;4867730;29;20044;-70
2023/06/26 10:24:02;;;;;;;9.73;3.20;;;21.40;97.00;;;;;;4891829;29;20048;-70
2023/06/26 10:26:29;;;;;;;13.32;2.85;;;22.20;97.20;;;;;;4898441;29;20493;-73
2023/06/26 10:28:57;;;;;;;11.63;2.70;;;21.80;95.40;;;;;;4898388;29;20104;-73
2023/06/26 10:31:28;;;;;;;19.25;2.63;;;22.40;97.30;;;;;;4887793;29;20057;-73
2023/06/26 10:33:55;;;;;;;10.10;2.53;;;21.40;95.70;;;;;;4868017;29;20487;-73
2023/06/26 10:36:28;;;;;;;17.30;3.53;;;21.80;97.00;;;;;;4889742;29;20569;-73
2023/06/26 10:39:04;;;;;;;11.07;2.55;;;22.00;97.20;;;;;;4887348;29;20146;-73
2023/06/26 10:41:37;;;;;;;11.13;2.67;;;21.90;97.00;;;;;;4882460;29;20080;-70
2023/06/26 10:44:03;;;;;;;17.17;3.15;;;;;;;;;;4882713;29;20087;-72
2023/06/26 10:46:33;;;;;;;9.82;2.45;;;23.00;92.50;;;;;;4882509;29;20116;-72
2023/06/26 10:49:00;;;;;;;16.58;3.03;;;23.00;95.60;;;;;;4881172;29;20459;-71
2023/06/26 10:51:29;;;;;;;18.45;2.47;;;22.40;90.20;;;;;;4881720;29;20057;-71
2023/06/26 10:54:00;;;;;;;17.27;2.85;;;22.60;95.20;;;;;;4884552;29;20131;-70
2023/06/26 10:56:59;;;;;;;14.70;2.87;;;22.50;95.00;;;;;;4874646;29;20037;-70
2023/06/26 10:59:27;;;;;;;13.73;2.92;;;22.60;95.50;;;;;;4863822;29;20372;-70
2023/06/26 11:02:00;;;;;;;20.95;4.10;;;22.90;95.00;;;;;;4876800;29;20048;-71
2023/06/26 11:04:46;;;;;;;15.73;2.80;;;21.50;91.60;;;;;;4882444;29;20196;-71
2023/06/26 11:07:26;;;;;;;16.15;4.45;;;22.20;94.80;;;;;;4867001;29;20048;-70
2023/06/26 11:09:58;;;;;;;18.02;3.00;;;21.70;91.50;;;;;;4896176;29;20044;-71
2023/06/26 11:12:44;;;;;;;17.98;3.78;;;20.90;95.30;;;;;;4885388;29;20130;-70
2023/06/26 11:15:12;;;;;;;12.70;3.08;;;21.80;92.00;;;;;;4869689;29;20043;-71
2023/06/26 11:17:39;;;;;;;19.05;3.35;;;22.40;95.70;;;;;;4884263;29;20041;-71
2023/06/26 11:20:15;;;;;;;22.48;3.75;;;22.10;95.70;;;;;;4896396;29;20058;-71
2023/06/26 11:22:42;;;;;;;14.70;3.50;;;21.80;95.60;;;;;;4889058;29;20046;-71
2023/06/26 11:25:09;;;;;;;17.42;3.40;;;21.10;95.50;;;;;;4893913;29;20040;-70
2023/06/26 11:27:38;;;;;;;13.52;2.97;;;22.60;95.70;;;;;;4887641;29;20110;-71
2023/06/26 11:30:05;;;;;;;13.13;3.30;;;22.80;95.40;;;;;;4892440;29;20072;-71
2023/06/26 11:32:32;;;;;;;20.50;3.35;;;22.50;94.30;;;;;;4889776;29;20056;-72
2023/06/26 11:34:59;;;;;;;20.52;3.38;;;22.60;94.50;;;;;;4872920;29;20040;-71
2023/06/26 11:37:25;;;;;;;18.45;3.80;;;21.80;91.10;;;;;;4876362;29;20045;-70
2023/06/26 11:39:51;;;;;;;17.67;3.00;;;;;;;;;;4850144;29;20045;-70
2023/06/26 11:42:18;;;;;;;17.17;3.38;;;22.40;91.40;;;;;;4881679;29;20514;-71
2023/06/26 11:44:44;;;;;;;12.23;3.17;;;22.30;95.40;;;;;;4881805;29;20595;-70
2023/06/26 11:47:18;;;;;;;22.63;3.58;;;22.90;95.40;;;;;;4866410;29;20135;-71
2023/06/26 11:49:46;;;;;;;14.32;4.05;;;22.90;94.50;;;;;;4865598;29;20459;-72
2023/06/26 11:52:12;;;;;;;19.98;3.47;;;22.90;91.90;;;;;;4880927;29;20089;-73
2023/06/26 11:54:38;;;;;;;22.08;4.25;;;22.90;95.50;;;;;;4881247;29;20067;-72
2023/06/26 11:57:05;;;;;;;17.30;3.30;;;22.60;91.30;;;;;;4881364;29;20052;-73
2023/06/26 11:59:39;;;;;;;18.45;3.72;;;21.80;95.10;;;;;;4881193;29;20509;-71
2023/06/26 12:02:06;;;;;;;13.82;3.17;;;21.70;95.20;;;;;;4881102;29;20079;-71
2023/06/26 12:04:34;;;;;;;14.38;3.83;;;21.20;92.10;;;;;;4865985;29;20067;-71
2023/06/26 12:07:04;;;;;;;19.55;4.25;;;21.70;93.90;;;;;;4866092;29;20481;-72
2023/06/26 12:09:33;;;;;;;14.07;2.95;;;22.10;95.20;;;;;;4881486;29;20048;-72
2023/06/26 12:11:59;;;;;;;16.88;3.25;;;;;;;;;;4881105;29;20053;-71
2023/06/26 12:14:28;;;;;;;16.98;3.13;;;21.40;94.70;;;;;;4865924;29;20486;-71
2023/06/26 12:16:54;;;;;;;14.35;3.13;;;21.40;95.10;;;;;;4863656;29;20037;-71
2023/06/26 12:19:26;;;;;;;11.68;3.20;;;22.00;95.40;;;;;;4847592;29;20394;-71
2023/06/26 12:21:52;;;;;;;14.93;3.70;;;22.80;95.60;;;;;;4864471;29;20048;-72
2023/06/26 12:24:22;;;;;;;17.70;3.33;;;22.50;95.60;;;;;;4881355;29;20096;-71
2023/06/26 12:26:54;;;;;;;13.07;2.90;;;22.30;95.60;;;;;;4865289;29;20449;-71
2023/06/26 12:29:21;;;;;;;15.15;3.13;;;22.50;95.80;;;;;;4865474;29;20560;-71
2023/06/26 12:31:53;;;;;;;14.80;3.20;;;22.80;95.70;;;;;;4880920;29;20045;-72
2023/06/26 12:34:30;;;;;;;;;;;22.00;91.60;;;;;;4881816;29;20156;-71
2023/06/26 12:37:07;;;;;;;16.08;3.40;;;22.20;91.20;;;;;;4881332;29;20385;-71
2023/06/26 12:39:46;;;;;;;12.05;3.08;;;21.20;95.20;;;;;;4865586;29;20132;-71
2023/06/26 12:42:35;;;;;;;12.70;3.30;;;22.70;95.60;;;;;;4862479;29;20052;-71
2023/06/26 12:45:10;;;;;;;14.27;3.38;;;21.90;95.40;;;;;;4861575;29;20053;-71
2023/06/26 12:47:38;;;;;;;17.25;3.50;;;22.40;95.60;;;;;;4865332;29;20045;-71
2023/06/26 12:50:07;;;;;;;17.70;3.55;;;22.20;95.70;;;;;;4877937;29;20529;-71